Time;durP1;ratioP1;P1;durP2;ratioP2;P2;SDS_P1;SDS_P2;PMS_P1;PMS_P2;Temp;Humidity;BMP_temperature;BMP_pressure;BME280_temperature;BME280_humidity;BME280_pressure;Samples;Min_cycle;Max_cycle;Signal;HPM_P1;HPM_P2
2022/01/30 00:01:44;;;;;;;1.83;0.80;;;;;;;26.03;31.63;97410.34;4921017;28;20168;-57
2022/01/30 00:04:10;;;;;;;3.80;0.77;;;;;;;26.03;31.60;97424.34;4921908;28;20034;-58
2022/01/30 00:06:35;;;;;;;3.13;0.80;;;;;;;26.03;31.27;97416.47;4905180;28;20463;-58
2022/01/30 00:09:01;;;;;;;1.50;0.88;;;;;;;26.03;31.63;97424.34;4916141;28;20534;-57
2022/01/30 00:11:32;;;;;;;4.07;0.82;;;;;;;26.03;31.63;97419.09;4909186;28;20031;-58
2022/01/30 00:13:59;;;;;;;4.93;0.80;;;;;;;26.02;31.21;97430.53;4913107;28;20170;-59
2022/01/30 00:16:29;;;;;;;3.63;0.50;;;;;;;26.04;31.51;97435.69;4910248;28;20036;-62
2022/01/30 00:19:15;;;;;;;2.80;0.70;;;;;;;26.04;31.60;97443.56;4911841;28;20031;-59
2022/01/30 00:21:46;;;;;;;2.08;0.60;;;;;;;26.03;31.04;97445.34;4912333;28;20019;-59
2022/01/30 00:24:57;;;;;;;3.22;0.85;;;;;;;26.03;31.02;97447.97;4916004;28;20099;-57
2022/01/30 00:27:00;;;;;;;2.30;0.52;;;;;;;26.02;31.44;97459.41;4925104;28;20077;-59
2022/01/30 00:29:25;;;;;;;3.50;0.77;;;;;;;26.04;31.13;97459.31;4924069;29;20641;-59
2022/01/30 00:31:51;;;;;;;3.83;0.90;;;;;;;26.02;31.39;97459.41;4928643;28;20074;-58
2022/01/30 00:34:17;;;;;;;2.10;0.70;;;;;;;26.02;31.59;97464.66;4927380;29;20027;-57
2022/01/30 00:36:42;;;;;;;1.15;0.50;;;;;;;26.03;31.18;97460.25;4924247;28;20097;-59
2022/01/30 00:39:08;;;;;;;1.80;0.47;;;;;;;26.03;31.07;97458.47;4927095;28;20036;-59
2022/01/30 00:41:33;;;;;;;2.10;0.73;;;;;;;26.03;31.50;97445.34;4923317;28;20071;-58
2022/01/30 00:43:59;;;;;;;1.65;0.60;;;;;;;26.03;31.57;97434.84;4923583;28;20035;-58
2022/01/30 00:46:24;;;;;;;2.05;0.90;;;;;;;26.03;31.58;97440.09;4922255;28;20031;-58
2022/01/30 00:48:49;;;;;;;5.35;0.63;;;;;;;26.03;31.20;97437.47;4926702;28;20470;-59
2022/01/30 00:51:16;;;;;;;1.38;0.50;;;;;;;26.01;31.37;97436.66;4926172;28;20090;-59
2022/01/30 00:53:42;;;;;;;1.13;0.50;;;;;;;26.03;31.43;97440.09;4923077;28;20039;-58
2022/01/30 00:56:08;;;;;;;1.73;0.55;;;;;;;26.02;31.05;97433.16;4937737;28;20078;-58
2022/01/30 00:58:33;;;;;;;3.70;0.60;;;;;;;26.02;31.47;97434.91;4924899;28;20031;-58
2022/01/30 01:00:59;;;;;;;1.17;0.40;;;;;;;26.00;31.61;97434.97;4921271;28;20031;-58
2022/01/30 01:03:25;;;;;;;2.05;0.57;;;;;;;26.01;31.13;97444.56;4925721;29;20036;-59
2022/01/30 01:05:51;;;;;;;1.10;0.60;;;;;;;26.02;31.58;97459.41;4924405;28;20023;-59
2022/01/30 01:08:27;;;;;;;1.83;0.60;;;;;;;26.02;31.00;97448.91;4923419;28;20160;-59
2022/01/30 01:11:10;;;;;;;1.35;0.50;;;;;;;26.02;31.38;97442.78;4937668;28;20070;-60
2022/01/30 01:24:04;;;;;;;0.75;0.50;;;;;;;26.00;31.10;97468.28;4924431;28;20039;-56
2022/01/30 01:26:30;;;;;;;2.03;0.60;;;;;;;26.00;31.22;97468.28;4922604;28;20765;-58
2022/01/30 01:28:55;;;;;;;1.33;0.60;;;;;;;25.98;31.34;97472.72;4920289;28;20083;-59
2022/01/30 01:31:21;;;;;;;0.68;0.50;;;;;;;25.98;31.65;97481.47;4924627;28;20093;-58
2022/01/30 01:36:18;;;;;;;0.30;0.30;;;;;;;25.99;31.16;97475.28;4923046;28;20089;-56
2022/01/30 01:38:43;;;;;;;2.72;0.60;;;;;;;25.98;31.47;97465.72;4924835;28;20745;-59
2022/01/30 01:41:09;;;;;;;2.15;0.40;;;;;;;25.97;31.19;97458.72;4927211;28;20460;-58
2022/01/30 01:43:35;;;;;;;1.17;0.47;;;;;;;25.98;31.00;97456.97;4938071;28;20867;-56
2022/01/30 01:46:02;;;;;;;1.10;0.40;;;;;;;25.98;31.56;97455.22;4923120;28;20432;-59
2022/01/30 01:48:33;;;;;;;1.27;0.60;;;;;;;25.97;31.53;97456.09;4925017;28;20093;-58
2022/01/30 01:51:15;;;;;;;1.53;0.67;;;;;;;25.97;31.32;97450.84;4925942;28;20040;-59
2022/01/30 01:53:40;;;;;;;0.45;0.30;;;;;;;25.96;31.69;97452.66;4920297;28;20577;-56
2022/01/30 01:56:06;;;;;;;1.38;0.40;;;;;;;25.97;31.65;97453.47;4922685;28;20086;-58
2022/01/30 01:58:31;;;;;;;1.40;0.45;;;;;;;25.97;31.54;97469.22;4920394;29;20035;-58
2022/01/30 02:00:59;;;;;;;0.85;0.35;;;;;;;25.97;31.73;97466.59;4922809;28;20576;-59
2022/01/30 02:03:25;;;;;;;0.40;0.40;;;;;;;25.97;31.77;97458.72;4919015;28;20620;-57
2022/01/30 02:05:55;;;;;;;0.43;0.38;;;;;;;25.98;31.37;97465.72;4921283;28;20158;-60
2022/01/30 02:10:59;;;;;;;;;;;;;;;;;;;;;
2022/01/30 02:27:05;;;;;;;0.70;0.30;;;;;;;25.95;31.25;97434.31;4922799;28;20045;-58
2022/01/30 02:29:30;;;;;;;1.02;0.35;;;;;;;25.95;31.65;97431.69;4918591;28;20695;-58
2022/01/30 02:31:58;;;;;;;0.85;0.30;;;;;;;25.94;31.22;97427.38;4919464;28;20410;-57
2022/01/30 02:34:30;;;;;;;0.80;0.40;;;;;;;25.94;31.19;97430.00;4920036;28;20031;-60
2022/01/30 02:36:56;;;;;;;1.00;0.40;;;;;;;25.94;31.69;97428.22;4922314;28;20036;-57
2022/01/30 02:39:22;;;;;;;0.73;0.40;;;;;;;25.94;31.35;97430.84;4923703;28;20041;-59
2022/01/30 02:41:47;;;;;;;0.95;0.20;;;;;;;25.94;31.40;97420.31;4918804;28;20114;-58
2022/01/30 02:44:25;;;;;;;1.67;0.30;;;;;;;25.93;31.10;97423.06;4921514;28;20031;-59
2022/01/30 02:46:55;;;;;;;0.40;0.30;;;;;;;25.94;31.15;97430.84;4936386;28;20316;-59
2022/01/30 02:51:50;;;;;;;0.45;0.30;;;;;;;25.94;31.36;97427.38;4920424;28;20031;-59
2022/01/30 02:54:16;;;;;;;0.57;0.30;;;;;;;25.92;31.57;97424.81;4918939;28;20101;-59
2022/01/30 02:56:42;;;;;;;0.20;0.20;;;;;;;25.92;31.38;97426.56;4922858;28;20413;-57
2022/01/30 02:59:07;;;;;;;0.40;0.30;;;;;;;25.93;31.21;97425.69;4936806;28;20585;-58
2022/01/30 03:01:33;;;;;;;3.03;0.43;;;;;;;25.94;31.14;97419.50;4924220;28;20031;-59
2022/01/30 03:03:58;;;;;;;0.20;0.20;;;;;;;25.94;31.55;97430.00;4918131;28;20031;-59
2022/01/30 03:06:24;;;;;;;0.38;0.20;;;;;;;25.93;31.39;97418.63;4925037;28;20605;-59
2022/01/30 03:08:49;;;;;;;0.65;0.20;;;;;;;25.93;31.16;97423.06;4923067;28;20591;-59
2022/01/30 03:11:15;;;;;;;0.85;0.60;;;;;;;25.94;31.31;97427.38;4919681;28;20994;-58
2022/01/30 03:13:40;;;;;;;0.70;0.35;;;;;;;25.94;31.71;97435.25;4921405;28;20027;-59
2022/01/30 03:16:06;;;;;;;0.77;0.38;;;;;;;25.94;31.34;97445.75;4922152;28;20833;-59
2022/01/30 03:18:31;;;;;;;0.93;0.47;;;;;;;25.92;31.70;97451.06;4921028;28;20027;-59
2022/01/30 03:20:57;;;;;;;0.30;0.30;;;;;;;25.94;31.10;97461.50;4920094;28;20049;-59
2022/01/30 03:23:22;;;;;;;0.38;0.20;;;;;;;25.93;31.64;97460.66;4920834;28;20027;-58
2022/01/30 03:25:56;;;;;;;2.28;0.35;;;;;;;25.93;31.08;97455.41;4921579;28;20031;-59
2022/01/30 03:28:21;;;;;;;0.47;0.22;;;;;;;25.93;31.73;97459.81;4922505;28;20031;-58
2022/01/30 03:30:48;;;;;;;1.42;0.20;;;;;;;25.92;31.11;97458.94;4937400;28;20035;-59
2022/01/30 03:33:14;;;;;;;1.63;0.30;;;;;;;25.93;31.59;97471.16;4919600;28;20784;-59
2022/01/30 03:35:40;;;;;;;0.10;0.10;;;;;;;25.93;31.32;97471.16;4921179;28;20031;-59
2022/01/30 03:38:05;;;;;;;2.40;0.30;;;;;;;25.93;31.38;97470.31;4920665;28;20027;-58
2022/01/30 03:40:31;;;;;;;0.20;0.20;;;;;;;25.92;31.57;97466.81;4927873;29;20043;-59
2022/01/30 03:42:56;;;;;;;0.50;0.30;;;;;;;25.92;31.59;97464.19;4919744;28;20043;-58
2022/01/30 03:45:22;;;;;;;2.05;0.30;;;;;;;25.91;31.32;97473.00;4921818;28;20801;-58
2022/01/30 03:47:48;;;;;;;0.70;0.22;;;;;;;25.93;31.01;97470.31;4922086;28;20050;-58
2022/01/30 03:50:13;;;;;;;0.63;0.22;;;;;;;25.92;31.22;97485.19;4920352;28;20478;-59
2022/01/30 03:52:38;;;;;;;2.83;0.25;;;;;;;25.90;31.16;97480.94;4927734;28;20097;-58
2022/01/30 03:55:04;;;;;;;0.85;0.20;;;;;;;25.91;30.94;97493.16;4941595;28;20032;-58
2022/01/30 03:57:30;;;;;;;1.88;0.30;;;;;;;25.92;31.03;97498.34;4930897;28;20030;-59
2022/01/30 03:59:55;;;;;;;0.30;0.20;;;;;;;25.91;31.35;97504.50;4936807;28;20760;-59
2022/01/30 04:02:20;;;;;;;0.52;0.10;;;;;;;25.91;31.22;97503.66;4922792;28;20087;-58
2022/01/30 04:04:46;;;;;;;0.40;0.20;;;;;;;25.90;31.15;97502.78;4922812;28;20082;-58
2022/01/30 04:07:12;;;;;;;0.65;0.30;;;;;;;25.91;31.51;97493.16;4923641;28;20032;-56
2022/01/30 04:09:37;;;;;;;0.63;0.30;;;;;;;25.91;31.60;97488.75;4925292;29;20070;-58
2022/01/30 04:12:03;;;;;;;0.70;0.30;;;;;;;25.91;31.56;97498.41;4925971;28;20027;-59
2022/01/30 04:14:29;;;;;;;1.15;0.30;;;;;;;25.90;31.15;97492.28;4927246;28;20035;-59
2022/01/30 04:16:54;;;;;;;1.10;0.32;;;;;;;25.90;31.15;97492.28;4925506;28;20066;-59
2022/01/30 04:19:20;;;;;;;2.40;0.40;;;;;;;25.90;30.98;97504.56;4928056;28;20042;-59
2022/01/30 04:21:45;;;;;;;0.88;0.30;;;;;;;25.86;31.09;97503.00;4927980;28;20035;-59
2022/01/30 04:24:11;;;;;;;0.90;0.40;;;;;;;25.89;30.90;97505.50;4922525;28;20020;-58
2022/01/30 04:26:36;;;;;;;2.17;0.40;;;;;;;25.91;31.17;97514.16;4924156;28;20160;-58
2022/01/30 04:29:02;;;;;;;6.57;0.80;;;;;;;25.89;30.71;97513.38;4922219;28;20043;-59
2022/01/30 04:31:28;;;;;;;1.63;0.57;;;;;;;25.89;30.78;97516.84;4921068;28;20103;-59
2022/01/30 04:33:53;;;;;;;0.93;0.47;;;;;;;25.90;30.66;97522.94;4926709;28;20027;-59
2022/01/30 04:36:25;;;;;;;1.88;0.50;;;;;;;25.88;30.56;97514.28;4926366;28;20859;-59
2022/01/30 04:39:04;;;;;;;;;;;;;;;25.89;30.94;97521.25;4927679;28;20058;-57
2022/01/30 04:58:04;;;;;;;2.97;0.90;;;;;;;25.86;30.71;97521.38;4921936;28;20509;-63
2022/01/30 05:08:01;;;;;;;1.67;0.47;;;;;;;25.80;31.08;97512.84;4924630;28;20223;-59
2022/01/30 05:10:26;;;;;;;3.17;1.00;;;;;;;25.80;31.12;97515.47;4913814;29;20039;-58
2022/01/30 05:12:55;;;;;;;2.35;0.75;;;;;;;25.81;31.05;97513.69;4923188;28;20939;-56
2022/01/30 05:15:21;;;;;;;1.58;0.63;;;;;;;25.81;30.53;97516.31;4924933;29;20035;-59
2022/01/30 05:17:47;;;;;;;3.42;0.70;;;;;;;25.81;31.11;97505.78;4924131;28;20547;-58
2022/01/30 05:20:13;;;;;;;1.00;0.40;;;;;;;25.80;30.78;97511.97;4925063;28;20023;-59
2022/01/30 05:22:38;;;;;;;2.38;1.10;;;;;;;25.80;31.01;97512.84;4914337;29;20118;-59
2022/01/30 05:25:04;;;;;;;1.52;0.75;;;;;;;25.79;30.55;97513.75;4922207;28;20039;-57
2022/01/30 05:27:30;;;;;;;2.08;0.90;;;;;;;25.80;30.44;97515.47;4922446;28;20501;-58
2022/01/30 05:29:56;;;;;;;4.65;1.00;;;;;;;25.79;30.33;97532.16;4920008;28;20424;-58
2022/01/30 05:32:21;;;;;;;2.42;0.50;;;;;;;25.80;30.29;97536.47;4934949;28;20134;-55
2022/01/30 05:34:47;;;;;;;1.92;0.70;;;;;;;25.81;30.66;97539.94;4921985;28;20431;-59
2022/01/30 05:37:13;;;;;;;2.42;0.80;;;;;;;25.80;30.76;97539.09;4927066;28;20875;-56
2022/01/30 05:39:39;;;;;;;1.67;0.80;;;;;;;25.79;30.39;97544.41;4930828;29;21022;-58
2022/01/30 05:42:05;;;;;;;4.93;1.10;;;;;;;25.80;30.13;97546.97;4924750;28;20085;-58
2022/01/30 05:44:44;;;;;;;1.33;0.60;;;;;;;25.78;30.62;97535.66;4928595;28;20132;-59
2022/01/30 05:47:12;;;;;;;1.70;0.40;;;;;;;25.79;30.87;97545.28;4923699;28;20039;-59
2022/01/30 05:49:38;;;;;;;1.60;0.80;;;;;;;25.80;30.27;97546.97;4922717;28;20187;-57
2022/01/30 05:52:04;;;;;;;3.38;0.88;;;;;;;25.80;30.27;97549.59;4924370;28;20019;-58
2022/01/30 05:54:29;;;;;;;2.22;0.85;;;;;;;25.80;30.64;97564.47;4939407;28;20074;-59
2022/01/30 05:56:54;;;;;;;2.58;0.75;;;;;;;25.80;30.85;97562.72;4918983;28;20446;-58
2022/01/30 05:59:20;;;;;;;3.45;0.82;;;;;;;25.80;30.27;97562.72;4919880;28;20783;-58
2022/01/30 06:01:45;;;;;;;2.10;0.80;;;;;;;25.80;30.19;97575.84;4923285;28;20086;-58
2022/01/30 06:04:10;;;;;;;3.97;0.80;;;;;;;25.80;30.61;97569.72;4921937;28;20035;-57
2022/01/30 06:06:36;;;;;;;5.13;0.90;;;;;;;25.79;30.41;97570.66;4922183;28;20031;-59
2022/01/30 06:09:18;;;;;;;2.22;0.90;;;;;;;25.79;30.39;97583.78;4936630;28;21271;-60
2022/01/30 06:11:44;;;;;;;4.28;1.10;;;;;;;25.79;30.13;97589.03;4918369;28;20097;-58
2022/01/30 06:14:10;;;;;;;3.90;1.50;;;;;;;25.78;30.13;97588.16;4922554;28;20035;-56
2022/01/30 06:16:35;;;;;;;5.95;1.30;;;;;;;25.78;29.96;97593.41;4924410;29;20035;-59
2022/01/30 06:19:01;;;;;;;4.72;1.23;;;;;;;25.79;29.82;97599.53;4924046;28;20043;-58
2022/01/30 06:21:27;;;;;;;2.70;1.00;;;;;;;25.78;29.98;97592.59;4923593;28;20471;-57
2022/01/30 06:23:53;;;;;;;5.93;1.15;;;;;;;25.77;30.20;97617.97;4923873;28;20034;-59
2022/01/30 06:26:18;;;;;;;4.25;1.30;;;;;;;25.78;30.11;97608.34;4926149;28;20039;-59
2022/01/30 06:28:43;;;;;;;3.28;0.88;;;;;;;25.78;29.80;97617.06;4920661;28;20098;-59
2022/01/30 06:31:09;;;;;;;3.75;1.20;;;;;;;25.77;30.20;97612.72;4922841;28;20034;-57
2022/01/30 06:33:34;;;;;;;3.00;1.23;;;;;;;25.75;30.14;97614.56;4919235;28;20050;-59
2022/01/30 06:36:00;;;;;;;2.75;1.20;;;;;;;25.77;29.79;97628.47;4934506;28;20454;-59
2022/01/30 06:38:25;;;;;;;2.75;1.08;;;;;;;25.76;29.90;97626.78;4923071;28;20469;-58
2022/01/30 06:40:51;;;;;;;3.20;1.17;;;;;;;25.76;30.35;97626.78;4926316;28;20035;-59
2022/01/30 06:43:16;;;;;;;3.83;0.98;;;;;;;25.76;30.32;97624.16;4919894;28;20812;-58
2022/01/30 06:45:44;;;;;;;3.70;1.20;;;;;;;25.76;29.97;97632.03;4919655;28;21352;-56
2022/01/30 06:48:10;;;;;;;2.72;1.30;;;;;;;25.77;29.73;97632.84;4919128;28;20104;-57
2022/01/30 06:50:35;;;;;;;6.18;1.45;;;;;;;25.76;30.29;97637.28;4919249;28;20725;-58
2022/01/30 06:53:00;;;;;;;2.97;1.23;;;;;;;25.75;30.11;97642.56;4919182;28;20484;-58
2022/01/30 06:55:26;;;;;;;14.70;2.03;;;;;;;25.76;29.98;97653.03;4917287;28;20629;-55
2022/01/30 06:57:51;;;;;;;4.43;1.35;;;;;;;25.75;30.01;97646.06;4918571;28;20046;-57
2022/01/30 07:00:17;;;;;;;4.40;1.65;;;;;;;25.75;29.86;97646.06;4928208;28;20032;-59
2022/01/30 07:02:42;;;;;;;7.50;2.20;;;;;;;25.74;29.57;97644.34;4914856;28;20051;-59
2022/01/30 07:05:08;;;;;;;4.75;1.70;;;;;;;25.74;29.78;97648.75;4916618;28;20043;-58
2022/01/30 07:07:33;;;;;;;7.43;1.70;;;;;;;25.73;29.82;97641.81;4918703;29;20067;-59
2022/01/30 07:09:59;;;;;;;13.07;1.52;;;;;;;25.73;29.82;97645.25;4919242;29;20039;-57
2022/01/30 07:12:24;;;;;;;4.85;1.48;;;;;;;25.74;29.98;97646.97;4921662;28;20046;-58
2022/01/30 07:14:50;;;;;;;11.30;2.20;;;;;;;25.73;29.87;97647.88;4914655;28;20050;-59
2022/01/30 07:17:15;;;;;;;11.18;3.22;;;;;;;25.74;30.16;97654.84;4914946;28;20031;-59
2022/01/30 07:19:40;;;;;;;8.30;2.75;;;;;;;25.75;30.22;97656.56;4917207;28;20498;-57
2022/01/30 07:22:06;;;;;;;13.68;3.03;;;;;;;25.75;29.99;97655.72;4920906;28;21253;-58
2022/01/30 07:24:31;;;;;;;14.73;2.88;;;;;;;25.75;30.15;97656.56;4922135;29;20956;-56
2022/01/30 07:26:57;;;;;;;9.77;2.72;;;;;;;25.76;29.93;97665.28;4918259;28;20102;-59
2022/01/30 07:29:22;;;;;;;7.30;2.60;;;;;;;25.76;30.19;97663.53;4914083;28;20036;-59
2022/01/30 07:31:48;;;;;;;11.95;2.60;;;;;;;25.77;29.83;97670.47;4931534;28;20264;-58
2022/01/30 07:34:13;;;;;;;11.77;3.08;;;;;;;25.77;29.84;97665.22;4934210;28;20027;-57
2022/01/30 07:36:39;;;;;;;8.23;2.60;;;;;;;25.77;30.29;97670.47;4920687;28;20040;-60
2022/01/30 07:39:08;;;;;;;13.32;2.47;;;;;;;25.77;30.53;97678.34;4921964;28;20031;-56
2022/01/30 07:41:34;;;;;;;19.25;4.00;;;;;;;25.78;30.25;97681.84;4913716;28;20047;-59
2022/01/30 07:44:00;;;;;;;13.90;3.17;;;;;;;25.77;29.91;97686.22;4920978;28;20034;-59
2022/01/30 07:46:26;;;;;;;14.30;3.03;;;;;;;25.77;30.22;97694.09;4922526;29;20545;-59
2022/01/30 07:48:51;;;;;;;11.13;2.72;;;;;;;25.77;29.66;97696.72;4915467;28;20035;-59
2022/01/30 07:51:16;;;;;;;30.13;3.33;;;;;;;-148.56;100.00;61375.16;4918991;28;20035;-60
2022/01/30 07:53:42;;;;;;;36.33;4.70;;;;;;;-148.56;100.00;61375.16;4914441;28;20086;-58
2022/01/30 07:56:07;;;;;;;11.00;2.60;;;;;;;-148.56;100.00;61375.16;4919238;28;20688;-62
2022/01/30 07:58:33;;;;;;;11.38;2.70;;;;;;;-148.56;100.00;61375.16;4919812;28;20027;-61
2022/01/30 08:00:58;;;;;;;10.80;2.60;;;;;;;-148.56;100.00;61375.16;4918687;28;20707;-61
2022/01/30 08:03:23;;;;;;;12.88;2.80;;;;;;;-148.56;100.00;61375.16;4916341;28;20051;-63
2022/01/30 08:05:49;;;;;;;13.30;2.95;;;;;;;-148.56;100.00;61375.16;4914272;28;20034;-62
2022/01/30 08:08:14;;;;;;;10.45;2.58;;;;;;;-148.56;100.00;61375.16;4917235;28;20558;-62
2022/01/30 08:10:40;;;;;;;13.05;2.60;;;;;;;-148.56;100.00;61375.16;4918299;28;20027;-62
2022/01/30 08:13:05;;;;;;;14.60;2.65;;;;;;;-148.56;100.00;61375.16;4917964;29;20032;-61
2022/01/30 08:15:30;;;;;;;12.55;2.30;;;;;;;-148.56;100.00;61375.16;4917828;29;20023;-61
2022/01/30 08:17:56;;;;;;;11.27;2.58;;;;;;;-148.56;100.00;61375.16;4920774;29;20046;-61
2022/01/30 08:20:25;;;;;;;12.57;2.47;;;;;;;-148.56;100.00;61375.16;4919668;29;20043;-62
2022/01/30 08:22:52;;;;;;;5.45;2.40;;;;;;;-148.56;100.00;61375.16;4921516;28;20042;-62
2022/01/30 08:25:18;;;;;;;14.15;2.47;;;;;;;-148.56;100.00;61375.16;4919450;28;20659;-61
2022/01/30 08:27:43;;;;;;;8.25;3.08;;;;;;;-148.56;100.00;61375.16;4913106;28;20028;-63
2022/01/30 08:30:09;;;;;;;9.27;3.13;;;;;;;-148.56;100.00;61375.16;4920179;29;20149;-60
2022/01/30 08:32:41;;;;;;;11.52;2.67;;;;;;;-148.56;100.00;61375.16;4919329;28;20050;-61
2022/01/30 08:35:08;;;;;;;7.85;2.40;;;;;;;-148.56;100.00;61375.16;4920845;29;20061;-61
2022/01/30 08:37:35;;;;;;;10.00;2.42;;;;;;;-148.56;100.00;61375.16;4926089;28;20043;-62
2022/01/30 08:40:08;;;;;;;7.70;1.95;;;;;;;-148.56;100.00;61375.16;4925977;29;20051;-62
2022/01/30 08:42:33;;;;;;;9.43;2.33;;;;;;;-148.56;100.00;61375.16;4924686;28;20130;-62
2022/01/30 08:44:59;;;;;;;8.15;2.08;;;;;;;-148.56;100.00;61375.16;4929260;28;20027;-61
2022/01/30 08:47:25;;;;;;;7.55;1.92;;;;;;;-148.56;100.00;61375.16;4924875;28;20070;-63
2022/01/30 08:49:50;;;;;;;7.13;2.08;;;;;;;-148.56;100.00;61375.16;4923142;29;20054;-60
2022/01/30 08:52:19;;;;;;;8.45;2.20;;;;;;;-148.56;100.00;61375.16;4922808;28;20035;-60
2022/01/30 08:54:44;;;;;;;6.07;2.20;;;;;;;-148.56;100.00;61375.16;4923416;29;20090;-62
2022/01/30 08:57:10;;;;;;;5.80;1.85;;;;;;;-148.56;100.00;61375.16;4923954;28;20035;-63
2022/01/30 08:59:35;;;;;;;6.53;2.20;;;;;;;-148.56;100.00;61375.16;4922842;29;20031;-62
2022/01/30 09:02:00;;;;;;;5.22;1.92;;;;;;;-148.56;100.00;61375.16;4920550;28;20042;-62
2022/01/30 09:04:26;;;;;;;7.63;2.10;;;;;;;-148.56;100.00;61375.16;4923985;28;20031;-63
2022/01/30 09:06:51;;;;;;;5.47;1.95;;;;;;;-148.56;100.00;61375.16;4921463;29;20039;-61
2022/01/30 09:09:17;;;;;;;5.50;1.88;;;;;;;-148.56;100.00;61375.16;4915516;28;20027;-64
2022/01/30 09:11:42;;;;;;;9.00;2.20;;;;;;;-148.56;100.00;61375.16;4921836;28;20647;-61
2022/01/30 09:14:08;;;;;;;7.28;2.03;;;;;;;-148.56;100.00;61375.16;4920529;28;20082;-61
2022/01/30 09:16:33;;;;;;;8.90;2.28;;;;;;;-148.56;100.00;61375.16;4919306;28;20117;-63
2022/01/30 09:18:59;;;;;;;8.45;2.03;;;;;;;-148.56;100.00;61375.16;4921668;28;20895;-63
2022/01/30 09:21:24;;;;;;;5.70;1.63;;;;;;;-148.56;100.00;61375.16;4923047;28;20039;-63
2022/01/30 09:23:50;;;;;;;4.32;1.75;;;;;;;-148.56;100.00;61375.16;4921519;29;20034;-64
2022/01/30 09:26:15;;;;;;;6.10;1.85;;;;;;;-148.56;100.00;61375.16;4921621;28;20054;-63
2022/01/30 09:28:41;;;;;;;6.55;1.63;;;;;;;-148.56;100.00;61375.16;4924702;29;20174;-58
2022/01/30 09:31:06;;;;;;;43.20;2.78;;;;;;;-148.56;100.00;61375.16;4918342;28;20230;-60
2022/01/30 09:33:32;;;;;;;31.98;2.72;;;;;;;-148.56;100.00;61375.16;4917936;29;20667;-58
2022/01/30 09:35:57;;;;;;;23.20;2.72;;;;;;;-148.56;100.00;61375.16;4920565;28;20058;-57
2022/01/30 09:38:23;;;;;;;13.10;1.90;;;;;;;-148.56;100.00;61375.16;4922357;29;20095;-58
2022/01/30 09:40:54;;;;;;;10.25;1.88;;;;;;;-148.56;100.00;61375.16;4921298;29;20020;-58
2022/01/30 09:43:21;;;;;;;5.85;1.83;;;;;;;-148.56;100.00;61375.16;4933908;28;20902;-57
2022/01/30 09:45:46;;;;;;;9.52;2.03;;;;;;;-148.56;100.00;61375.16;4923649;29;20039;-58
2022/01/30 09:48:12;;;;;;;11.48;2.05;;;;;;;-148.56;100.00;61375.16;4922938;29;20469;-58
2022/01/30 09:50:38;;;;;;;12.02;2.38;;;;;;;-148.56;100.00;61375.16;4937211;28;20036;-59
2022/01/30 09:53:04;;;;;;;24.17;2.28;;;;;;;-148.56;100.00;61375.16;4928500;28;20039;-59
2022/01/30 09:55:29;;;;;;;14.27;2.00;;;;;;;-148.56;100.00;61375.16;4923692;28;20908;-59
2022/01/30 09:57:54;;;;;;;9.70;2.00;;;;;;;-148.56;100.00;61375.16;4907831;28;20055;-60
2022/01/30 10:00:20;;;;;;;8.77;1.90;;;;;;;-148.56;100.00;61375.16;4936974;28;20046;-60
2022/01/30 10:02:45;;;;;;;8.55;2.00;;;;;;;-148.56;100.00;61375.16;4936576;28;20031;-59
2022/01/30 10:05:12;;;;;;;17.02;2.28;;;;;;;-148.56;100.00;61375.16;4920218;29;20027;-60
2022/01/30 10:07:42;;;;;;;8.15;2.28;;;;;;;-148.56;100.00;61375.16;4924048;28;20030;-62
2022/01/30 10:10:12;;;;;;;7.78;1.60;;;;;;;-148.56;100.00;61375.16;4923611;28;20031;-58
2022/01/30 10:13:00;;;;;;;12.57;2.15;;;;;;;-148.56;100.00;61375.16;4916368;28;20806;-60
2022/01/30 10:15:25;;;;;;;7.18;2.03;;;;;;;-148.56;100.00;61375.16;4921733;28;20031;-59
2022/01/30 10:17:51;;;;;;;6.20;1.98;;;;;;;-148.56;100.00;61375.16;4925082;28;20066;-60
2022/01/30 10:20:18;;;;;;;7.90;2.05;;;;;;;-148.56;100.00;61375.16;4918951;28;20031;-61
2022/01/30 10:22:56;;;;;;;8.88;1.90;;;;;;;-148.56;100.00;61375.16;4917405;28;20051;-59
2022/01/30 10:25:30;;;;;;;9.43;2.00;;;;;;;-148.56;100.00;61375.16;4917965;28;20260;-59
2022/01/30 10:28:13;;;;;;;7.45;2.00;;;;;;;-148.56;100.00;61375.16;4922672;28;20066;-60
2022/01/30 10:30:52;;;;;;;7.10;1.98;;;;;;;-148.56;100.00;61375.16;4920672;28;20175;-60
2022/01/30 10:33:18;;;;;;;9.75;1.80;;;;;;;-148.56;100.00;61375.16;4921686;28;20114;-60
2022/01/30 10:35:52;;;;;;;5.97;1.60;;;;;;;-148.56;100.00;61375.16;4925259;28;20044;-59
2022/01/30 10:38:22;;;;;;;8.98;1.60;;;;;;;-148.56;100.00;61375.16;4926271;28;20827;-59
2022/01/30 10:40:55;;;;;;;8.70;1.77;;;;;;;-148.56;100.00;61375.16;4922952;29;20753;-60
2022/01/30 10:43:20;;;;;;;7.10;1.70;;;;;;;-148.56;100.00;61375.16;4920239;28;20030;-61
2022/01/30 10:45:46;;;;;;;5.60;1.70;;;;;;;-148.56;100.00;61375.16;4922582;29;20030;-57
2022/01/30 10:48:17;;;;;;;5.65;1.60;;;;;;;-148.56;100.00;61375.16;4931608;29;20058;-59
2022/01/30 10:50:44;;;;;;;10.23;1.57;;;;;;;-148.56;100.00;61375.16;4920754;28;20027;-59
2022/01/30 10:53:25;;;;;;;5.28;1.85;;;;;;;-148.56;100.00;61375.16;4925022;28;20035;-60
2022/01/30 10:55:51;;;;;;;11.30;2.17;;;;;;;-148.56;100.00;61375.16;4921294;29;20023;-58
2022/01/30 10:58:21;;;;;;;7.68;1.75;;;;;;;-148.56;100.00;61375.16;4922091;28;20039;-59
2022/01/30 11:00:48;;;;;;;5.28;1.80;;;;;;;-148.56;100.00;61375.16;4921386;28;20114;-61
2022/01/30 11:03:39;;;;;;;10.48;2.00;;;;;;;-148.56;100.00;61375.16;4919745;28;20035;-60
2022/01/30 11:06:08;;;;;;;6.28;1.92;;;;;;;-148.56;100.00;61375.16;4921307;28;20031;-59
2022/01/30 11:08:39;;;;;;;7.00;1.65;;;;;;;-148.56;100.00;61375.16;4918780;28;20039;-59
2022/01/30 11:11:31;;;;;;;15.57;1.58;;;;;;;-148.56;100.00;61375.16;4921157;28;20024;-59
2022/01/30 11:14:15;;;;;;;;;;;;;;;-148.56;100.00;61375.16;4919324;28;20046;-57
2022/01/30 11:16:59;;;;;;;6.85;1.33;;;;;;;-148.56;100.00;61375.16;4920737;29;19954;-58
2022/01/30 11:19:26;;;;;;;7.43;1.80;;;;;;;-148.56;100.00;61375.16;4925503;29;20027;-58
2022/01/30 11:21:53;;;;;;;5.22;1.70;;;;;;;-148.56;100.00;61375.16;4927314;28;20753;-56
2022/01/30 11:24:19;;;;;;;8.10;1.63;;;;;;;-148.56;100.00;61375.16;4928369;28;20709;-57
2022/01/30 11:26:45;;;;;;;5.05;1.70;;;;;;;-148.56;100.00;61375.16;4918043;28;20046;-58
2022/01/30 11:29:11;;;;;;;11.35;1.67;;;;;;;-148.56;100.00;61375.16;4928943;28;20055;-57
2022/01/30 11:31:36;;;;;;;6.35;1.30;;;;;;;-148.56;100.00;61375.16;4922824;28;20038;-54
2022/01/30 11:34:02;;;;;;;8.18;2.17;;;;;;;-148.56;100.00;61375.16;4912061;28;20034;-58
2022/01/30 11:36:28;;;;;;;6.65;1.77;;;;;;;-148.56;100.00;61375.16;4906878;28;20150;-55
2022/01/30 11:38:53;;;;;;;3.55;1.40;;;;;;;-148.56;100.00;61375.16;4907508;28;20039;-59
2022/01/30 11:41:19;;;;;;;3.28;1.40;;;;;;;-148.56;100.00;61375.16;4905756;28;20035;-59
2022/01/30 11:44:19;;;;;;;7.07;1.77;;;;;;;-148.56;100.00;61375.16;4907500;28;20704;-56
2022/01/30 11:46:57;;;;;;;6.55;1.30;;;;;;;-148.56;100.00;61375.16;4916734;28;20123;-58
2022/01/30 11:49:24;;;;;;;4.95;1.42;;;;;;;-148.56;100.00;61375.16;4903524;28;20028;-59
2022/01/30 11:51:54;;;;;;;5.55;1.55;;;;;;;-148.56;100.00;61375.16;4907977;28;20043;-56
2022/01/30 11:54:41;;;;;;;4.43;1.52;;;;;;;-148.56;100.00;61375.16;4906230;28;20051;-59
2022/01/30 11:57:25;;;;;;;6.30;1.50;;;;;;;-148.56;100.00;61375.16;4904583;28;20509;-56
2022/01/30 11:59:57;;;;;;;10.50;1.90;;;;;;;-148.56;100.00;61375.16;4903425;28;20039;-58
2022/01/30 12:02:35;;;;;;;9.73;1.70;;;;;;;-148.56;100.00;61375.16;4923823;28;20033;-57
2022/01/30 12:05:05;;;;;;;11.30;1.60;;;;;;;-148.56;100.00;61375.16;4911005;28;20019;-56
2022/01/30 12:07:47;;;;;;;7.88;1.45;;;;;;;-148.56;100.00;61375.16;4911524;28;20040;-58
2022/01/30 12:10:15;;;;;;;10.23;1.42;;;;;;;-148.56;100.00;61375.16;4896662;29;20152;-58
2022/01/30 12:12:56;;;;;;;11.18;1.60;;;;;;;-148.56;100.00;61375.16;4932716;28;20032;-58
2022/01/30 12:15:38;;;;;;;13.85;1.70;;;;;;;-148.56;100.00;61375.16;4920160;28;20156;-58
2022/01/30 12:18:04;;;;;;;;;;;;;;;-148.56;100.00;61375.16;4918961;28;20116;-58
2022/01/30 12:20:31;;;;;;;13.93;2.00;;;;;;;-148.56;100.00;61375.16;4917665;28;19926;-56
2022/01/30 12:22:57;;;;;;;15.50;1.20;;;;;;;-148.56;100.00;61375.16;4920180;29;20155;-57